sensor_id;sensor_type;location;lat;lon;timestamp;temperature;humidity
37938;DHT22;23763;48.130;11.602;2023-09-30T00:01:11;18.10;99.90
37938;DHT22;23763;48.130;11.602;2023-09-30T00:03:37;18.10;99.90
37938;DHT22;23763;48.130;11.602;2023-09-30T00:06:03;18.00;99.90
37938;DHT22;23763;48.130;11.602;2023-09-30T00:08:29;18.10;99.90
37938;DHT22;23763;48.130;11.602;2023-09-30T00:10:55;18.00;99.90
37938;DHT22;23763;48.130;11.602;2023-09-30T00:13:21;18.00;99.90
37938;DHT22;23763;48.130;11.602;2023-09-30T00:15:47;18.10;99.90
37938;DHT22;23763;48.130;11.602;2023-09-30T00:18:13;18.10;99.90
37938;DHT22;23763;48.130;11.602;2023-09-30T00:20:39;18.10;99.90
37938;DHT22;23763;48.130;11.602;2023-09-30T00:23:04;18.00;99.90
37938;DHT22;23763;48.130;11.602;2023-09-30T00:25:32;18.00;99.90
37938;DHT22;23763;48.130;11.602;2023-09-30T00:27:58;17.90;99.90
37938;DHT22;23763;48.130;11.602;2023-09-30T00:30:23;17.90;99.90
37938;DHT22;23763;48.130;11.602;2023-09-30T00:32:49;17.90;99.90
37938;DHT22;23763;48.130;11.602;2023-09-30T00:35:15;17.80;99.90
37938;DHT22;23763;48.130;11.602;2023-09-30T00:37:41;17.90;99.90
37938;DHT22;23763;48.130;11.602;2023-09-30T00:40:08;17.90;99.90
37938;DHT22;23763;48.130;11.602;2023-09-30T00:42:40;18.00;99.90
37938;DHT22;23763;48.130;11.602;2023-09-30T00:45:07;18.00;99.90
37938;DHT22;23763;48.130;11.602;2023-09-30T00:47:35;17.90;99.90
37938;DHT22;23763;48.130;11.602;2023-09-30T00:50:02;17.90;99.90
37938;DHT22;23763;48.130;11.602;2023-09-30T00:52:30;17.80;99.90
37938;DHT22;23763;48.130;11.602;2023-09-30T00:54:56;17.80;99.90
37938;DHT22;23763;48.130;11.602;2023-09-30T00:57:23;17.60;99.90
37938;DHT22;23763;48.130;11.602;2023-09-30T00:59:50;17.60;99.90
37938;DHT22;23763;48.130;11.602;2023-09-30T01:02:17;17.60;99.90
37938;DHT22;23763;48.130;11.602;2023-09-30T01:04:43;17.60;99.90
37938;DHT22;23763;48.130;11.602;2023-09-30T01:07:09;17.50;99.90
37938;DHT22;23763;48.130;11.602;2023-09-30T01:09:36;17.60;99.90
37938;DHT22;23763;48.130;11.602;2023-09-30T01:12:02;17.60;99.90
37938;DHT22;23763;48.130;11.602;2023-09-30T01:14:30;17.60;99.90
37938;DHT22;23763;48.130;11.602;2023-09-30T01:16:56;17.60;99.90
37938;DHT22;23763;48.130;11.602;2023-09-30T01:19:23;17.60;99.90
37938;DHT22;23763;48.130;11.602;2023-09-30T01:21:52;17.60;99.90
37938;DHT22;23763;48.130;11.602;2023-09-30T01:24:20;17.70;99.90
37938;DHT22;23763;48.130;11.602;2023-09-30T01:26:45;17.70;99.90
37938;DHT22;23763;48.130;11.602;2023-09-30T01:29:11;17.70;99.90
37938;DHT22;23763;48.130;11.602;2023-09-30T01:31:40;17.70;99.90
37938;DHT22;23763;48.130;11.602;2023-09-30T01:34:05;17.60;99.90
37938;DHT22;23763;48.130;11.602;2023-09-30T01:36:31;17.60;99.90
37938;DHT22;23763;48.130;11.602;2023-09-30T01:38:57;17.60;99.90
37938;DHT22;23763;48.130;11.602;2023-09-30T01:41:23;17.60;99.90
37938;DHT22;23763;48.130;11.602;2023-09-30T01:43:49;17.60;99.90
37938;DHT22;23763;48.130;11.602;2023-09-30T01:46:15;17.60;99.90
37938;DHT22;23763;48.130;11.602;2023-09-30T01:48:40;17.60;99.90
37938;DHT22;23763;48.130;11.602;2023-09-30T01:51:06;17.50;99.90
37938;DHT22;23763;48.130;11.602;2023-09-30T01:53:32;17.50;99.90
37938;DHT22;23763;48.130;11.602;2023-09-30T01:55:58;17.50;99.90
37938;DHT22;23763;48.130;11.602;2023-09-30T01:58:24;17.50;99.90
37938;DHT22;23763;48.130;11.602;2023-09-30T02:00:53;17.50;99.90
37938;DHT22;23763;48.130;11.602;2023-09-30T02:03:19;17.50;99.90
37938;DHT22;23763;48.130;11.602;2023-09-30T02:05:45;17.50;99.90
37938;DHT22;23763;48.130;11.602;2023-09-30T02:08:11;17.50;99.90
37938;DHT22;23763;48.130;11.602;2023-09-30T02:10:36;17.40;99.90
37938;DHT22;23763;48.130;11.602;2023-09-30T02:13:02;17.40;99.90
37938;DHT22;23763;48.130;11.602;2023-09-30T02:15:31;17.40;99.90
37938;DHT22;23763;48.130;11.602;2023-09-30T02:17:57;17.30;99.90
37938;DHT22;23763;48.130;11.602;2023-09-30T02:20:22;17.30;99.90
37938;DHT22;23763;48.130;11.602;2023-09-30T02:22:51;17.30;99.90
37938;DHT22;23763;48.130;11.602;2023-09-30T02:25:18;17.30;99.90
37938;DHT22;23763;48.130;11.602;2023-09-30T02:27:44;17.40;99.90
37938;DHT22;23763;48.130;11.602;2023-09-30T02:30:11;17.40;99.90
37938;DHT22;23763;48.130;11.602;2023-09-30T02:32:41;17.40;99.90
37938;DHT22;23763;48.130;11.602;2023-09-30T02:35:08;17.40;99.90
37938;DHT22;23763;48.130;11.602;2023-09-30T02:37:36;17.50;99.90
37938;DHT22;23763;48.130;11.602;2023-09-30T02:40:03;17.50;99.90
37938;DHT22;23763;48.130;11.602;2023-09-30T02:42:30;17.40;99.90
37938;DHT22;23763;48.130;11.602;2023-09-30T02:44:58;17.40;99.90
37938;DHT22;23763;48.130;11.602;2023-09-30T02:47:24;17.40;99.90
37938;DHT22;23763;48.130;11.602;2023-09-30T02:49:50;17.40;99.90
37938;DHT22;23763;48.130;11.602;2023-09-30T02:52:15;17.40;99.90
37938;DHT22;23763;48.130;11.602;2023-09-30T02:54:42;17.50;99.90
37938;DHT22;23763;48.130;11.602;2023-09-30T02:57:07;17.60;99.90
37938;DHT22;23763;48.130;11.602;2023-09-30T02:59:35;17.50;99.90
37938;DHT22;23763;48.130;11.602;2023-09-30T03:02:02;17.40;99.90
37938;DHT22;23763;48.130;11.602;2023-09-30T03:04:28;17.30;99.90
37938;DHT22;23763;48.130;11.602;2023-09-30T03:06:54;17.20;99.90
37938;DHT22;23763;48.130;11.602;2023-09-30T03:09:22;17.20;99.90
37938;DHT22;23763;48.130;11.602;2023-09-30T03:11:47;17.20;99.90
37938;DHT22;23763;48.130;11.602;2023-09-30T03:14:13;17.10;99.90
37938;DHT22;23763;48.130;11.602;2023-09-30T03:16:40;17.10;99.90
37938;DHT22;23763;48.130;11.602;2023-09-30T03:19:07;17.10;99.90
37938;DHT22;23763;48.130;11.602;2023-09-30T03:21:37;17.00;99.90
37938;DHT22;23763;48.130;11.602;2023-09-30T03:24:05;17.00;99.90
37938;DHT22;23763;48.130;11.602;2023-09-30T03:26:33;17.00;99.90
37938;DHT22;23763;48.130;11.602;2023-09-30T03:28:59;16.90;99.90
37938;DHT22;23763;48.130;11.602;2023-09-30T03:31:24;16.90;99.90
37938;DHT22;23763;48.130;11.602;2023-09-30T03:33:50;16.90;99.90
37938;DHT22;23763;48.130;11.602;2023-09-30T03:36:23;16.90;99.90
37938;DHT22;23763;48.130;11.602;2023-09-30T03:38:50;16.90;99.90
37938;DHT22;23763;48.130;11.602;2023-09-30T03:41:17;16.90;99.90
37938;DHT22;23763;48.130;11.602;2023-09-30T03:43:44;16.90;99.90
37938;DHT22;23763;48.130;11.602;2023-09-30T03:46:10;16.90;99.90
37938;DHT22;23763;48.130;11.602;2023-09-30T03:48:38;16.90;99.90
37938;DHT22;23763;48.130;11.602;2023-09-30T03:51:14;16.90;99.90
37938;DHT22;23763;48.130;11.602;2023-09-30T03:53:46;17.00;99.90
37938;DHT22;23763;48.130;11.602;2023-09-30T03:56:12;17.10;99.90
37938;DHT22;23763;48.130;11.602;2023-09-30T03:58:42;17.10;99.90
37938;DHT22;23763;48.130;11.602;2023-09-30T04:01:09;17.10;99.90
37938;DHT22;23763;48.130;11.602;2023-09-30T04:03:38;17.10;99.90
37938;DHT22;23763;48.130;11.602;2023-09-30T04:06:05;17.10;99.90
37938;DHT22;23763;48.130;11.602;2023-09-30T04:08:35;17.20;99.90
37938;DHT22;23763;48.130;11.602;2023-09-30T04:11:01;17.10;99.90
37938;DHT22;23763;48.130;11.602;2023-09-30T04:13:28;17.20;99.90
37938;DHT22;23763;48.130;11.602;2023-09-30T04:15:55;17.20;99.90
37938;DHT22;23763;48.130;11.602;2023-09-30T04:18:21;17.20;99.90
37938;DHT22;23763;48.130;11.602;2023-09-30T04:20:48;17.20;99.90
37938;DHT22;23763;48.130;11.602;2023-09-30T04:23:14;17.20;99.90
37938;DHT22;23763;48.130;11.602;2023-09-30T04:25:40;17.10;99.90
37938;DHT22;23763;48.130;11.602;2023-09-30T04:28:06;17.10;99.90
37938;DHT22;23763;48.130;11.602;2023-09-30T04:30:34;17.00;99.90
37938;DHT22;23763;48.130;11.602;2023-09-30T04:32:59;17.00;99.90
37938;DHT22;23763;48.130;11.602;2023-09-30T04:35:26;17.00;99.90
37938;DHT22;23763;48.130;11.602;2023-09-30T04:37:52;16.90;99.90
37938;DHT22;23763;48.130;11.602;2023-09-30T04:40:18;16.90;99.90
37938;DHT22;23763;48.130;11.602;2023-09-30T04:42:47;16.90;99.90
37938;DHT22;23763;48.130;11.602;2023-09-30T04:45:13;16.90;99.90
37938;DHT22;23763;48.130;11.602;2023-09-30T04:47:42;16.80;99.90
37938;DHT22;23763;48.130;11.602;2023-09-30T04:50:10;16.80;99.90
37938;DHT22;23763;48.130;11.602;2023-09-30T04:52:37;16.70;99.90
37938;DHT22;23763;48.130;11.602;2023-09-30T04:55:04;16.70;99.90
37938;DHT22;23763;48.130;11.602;2023-09-30T04:57:30;16.70;99.90
37938;DHT22;23763;48.130;11.602;2023-09-30T04:59:57;16.60;99.90
37938;DHT22;23763;48.130;11.602;2023-09-30T05:02:23;16.60;99.90
37938;DHT22;23763;48.130;11.602;2023-09-30T05:04:49;16.60;99.90
37938;DHT22;23763;48.130;11.602;2023-09-30T05:07:15;16.50;99.90
37938;DHT22;23763;48.130;11.602;2023-09-30T05:09:40;16.50;99.90
37938;DHT22;23763;48.130;11.602;2023-09-30T05:12:07;16.40;99.90
37938;DHT22;23763;48.130;11.602;2023-09-30T05:14:32;16.50;99.90
37938;DHT22;23763;48.130;11.602;2023-09-30T05:16:58;16.50;99.90
37938;DHT22;23763;48.130;11.602;2023-09-30T05:19:24;16.50;99.90
37938;DHT22;23763;48.130;11.602;2023-09-30T05:21:50;16.50;99.90
37938;DHT22;23763;48.130;11.602;2023-09-30T05:24:16;16.50;99.90
37938;DHT22;23763;48.130;11.602;2023-09-30T05:26:44;16.50;99.90
37938;DHT22;23763;48.130;11.602;2023-09-30T05:29:10;16.60;99.90
37938;DHT22;23763;48.130;11.602;2023-09-30T05:31:36;16.60;99.90
37938;DHT22;23763;48.130;11.602;2023-09-30T05:34:02;16.70;99.90
37938;DHT22;23763;48.130;11.602;2023-09-30T05:36:28;16.70;99.90
37938;DHT22;23763;48.130;11.602;2023-09-30T05:38:55;16.70;99.90
37938;DHT22;23763;48.130;11.602;2023-09-30T05:41:23;16.80;99.90
37938;DHT22;23763;48.130;11.602;2023-09-30T05:43:50;16.80;99.90
37938;DHT22;23763;48.130;11.602;2023-09-30T05:46:15;16.70;99.90
37938;DHT22;23763;48.130;11.602;2023-09-30T05:48:41;16.80;99.90
37938;DHT22;23763;48.130;11.602;2023-09-30T05:51:07;16.80;99.90
37938;DHT22;23763;48.130;11.602;2023-09-30T05:53:33;16.80;99.90
37938;DHT22;23763;48.130;11.602;2023-09-30T05:55:59;16.90;99.90
37938;DHT22;23763;48.130;11.602;2023-09-30T05:58:25;16.90;99.90
37938;DHT22;23763;48.130;11.602;2023-09-30T06:00:52;17.00;99.90
37938;DHT22;23763;48.130;11.602;2023-09-30T06:03:18;17.00;99.90
37938;DHT22;23763;48.130;11.602;2023-09-30T06:05:46;17.10;99.90
37938;DHT22;23763;48.130;11.602;2023-09-30T06:08:12;17.10;99.90
37938;DHT22;23763;48.130;11.602;2023-09-30T06:10:41;17.20;99.90
37938;DHT22;23763;48.130;11.602;2023-09-30T06:13:13;17.20;99.90
37938;DHT22;23763;48.130;11.602;2023-09-30T06:15:42;17.20;99.90
37938;DHT22;23763;48.130;11.602;2023-09-30T06:18:09;17.30;99.90
37938;DHT22;23763;48.130;11.602;2023-09-30T06:20:36;17.30;99.90
37938;DHT22;23763;48.130;11.602;2023-09-30T06:23:01;17.30;99.90
37938;DHT22;23763;48.130;11.602;2023-09-30T06:25:27;17.30;99.90
37938;DHT22;23763;48.130;11.602;2023-09-30T06:27:54;17.40;99.90
37938;DHT22;23763;48.130;11.602;2023-09-30T06:30:20;17.40;99.90
37938;DHT22;23763;48.130;11.602;2023-09-30T06:32:46;17.50;99.90
37938;DHT22;23763;48.130;11.602;2023-09-30T06:35:12;17.50;99.90
37938;DHT22;23763;48.130;11.602;2023-09-30T06:37:39;17.60;99.90
37938;DHT22;23763;48.130;11.602;2023-09-30T06:42:33;17.70;99.90
37938;DHT22;23763;48.130;11.602;2023-09-30T06:44:59;17.70;99.90
37938;DHT22;23763;48.130;11.602;2023-09-30T06:47:24;17.70;99.90
37938;DHT22;23763;48.130;11.602;2023-09-30T06:49:50;17.80;99.90
37938;DHT22;23763;48.130;11.602;2023-09-30T06:52:16;17.90;99.90
37938;DHT22;23763;48.130;11.602;2023-09-30T06:54:42;18.00;99.90
37938;DHT22;23763;48.130;11.602;2023-09-30T06:57:08;18.00;99.90
37938;DHT22;23763;48.130;11.602;2023-09-30T06:59:35;18.00;99.90
37938;DHT22;23763;48.130;11.602;2023-09-30T07:02:01;18.10;99.90
37938;DHT22;23763;48.130;11.602;2023-09-30T07:04:26;18.10;99.90
37938;DHT22;23763;48.130;11.602;2023-09-30T07:06:55;18.30;99.90
37938;DHT22;23763;48.130;11.602;2023-09-30T07:09:20;18.10;99.90
37938;DHT22;23763;48.130;11.602;2023-09-30T07:11:46;18.00;99.90
37938;DHT22;23763;48.130;11.602;2023-09-30T07:14:12;18.00;99.90
37938;DHT22;23763;48.130;11.602;2023-09-30T07:16:37;18.10;99.90
37938;DHT22;23763;48.130;11.602;2023-09-30T07:19:04;18.10;99.90
37938;DHT22;23763;48.130;11.602;2023-09-30T07:21:30;18.20;99.90
37938;DHT22;23763;48.130;11.602;2023-09-30T07:23:56;18.30;99.90
37938;DHT22;23763;48.130;11.602;2023-09-30T07:26:25;18.20;99.90
37938;DHT22;23763;48.130;11.602;2023-09-30T07:28:51;18.10;99.90
37938;DHT22;23763;48.130;11.602;2023-09-30T07:31:16;18.10;99.90
37938;DHT22;23763;48.130;11.602;2023-09-30T07:33:42;18.20;99.90
37938;DHT22;23763;48.130;11.602;2023-09-30T07:36:08;18.20;99.90
37938;DHT22;23763;48.130;11.602;2023-09-30T07:38:34;18.20;99.90
37938;DHT22;23763;48.130;11.602;2023-09-30T07:41:00;18.30;99.90
37938;DHT22;23763;48.130;11.602;2023-09-30T07:43:28;18.20;99.90
37938;DHT22;23763;48.130;11.602;2023-09-30T07:45:54;18.10;99.90
37938;DHT22;23763;48.130;11.602;2023-09-30T07:48:20;18.20;99.90
37938;DHT22;23763;48.130;11.602;2023-09-30T07:50:45;18.30;99.90
37938;DHT22;23763;48.130;11.602;2023-09-30T07:53:13;18.20;99.90
37938;DHT22;23763;48.130;11.602;2023-09-30T07:55:39;18.20;99.90
37938;DHT22;23763;48.130;11.602;2023-09-30T07:58:05;18.40;99.90
37938;DHT22;23763;48.130;11.602;2023-09-30T08:00:30;18.50;99.90
37938;DHT22;23763;48.130;11.602;2023-09-30T08:02:59;18.50;99.90
37938;DHT22;23763;48.130;11.602;2023-09-30T08:05:26;18.60;99.90
37938;DHT22;23763;48.130;11.602;2023-09-30T08:07:52;18.70;99.90
37938;DHT22;23763;48.130;11.602;2023-09-30T08:10:18;18.70;99.90
37938;DHT22;23763;48.130;11.602;2023-09-30T08:12:44;18.80;99.90
37938;DHT22;23763;48.130;11.602;2023-09-30T08:15:13;19.00;99.90
37938;DHT22;23763;48.130;11.602;2023-09-30T08:17:39;18.90;99.90
37938;DHT22;23763;48.130;11.602;2023-09-30T08:20:06;19.00;99.90
37938;DHT22;23763;48.130;11.602;2023-09-30T08:22:32;19.20;99.90
37938;DHT22;23763;48.130;11.602;2023-09-30T08:24:57;19.30;99.90
37938;DHT22;23763;48.130;11.602;2023-09-30T08:27:24;19.00;99.90
37938;DHT22;23763;48.130;11.602;2023-09-30T08:29:50;18.90;99.90
37938;DHT22;23763;48.130;11.602;2023-09-30T08:32:16;18.70;99.90
37938;DHT22;23763;48.130;11.602;2023-09-30T08:34:42;18.90;99.90
37938;DHT22;23763;48.130;11.602;2023-09-30T08:37:07;19.10;99.90
37938;DHT22;23763;48.130;11.602;2023-09-30T08:39:38;19.40;99.90
37938;DHT22;23763;48.130;11.602;2023-09-30T08:42:09;19.70;99.90
37938;DHT22;23763;48.130;11.602;2023-09-30T08:44:39;19.80;99.90
37938;DHT22;23763;48.130;11.602;2023-09-30T08:47:08;19.60;99.90
37938;DHT22;23763;48.130;11.602;2023-09-30T08:49:37;19.50;99.90
37938;DHT22;23763;48.130;11.602;2023-09-30T08:52:05;19.40;99.90
37938;DHT22;23763;48.130;11.602;2023-09-30T08:54:31;19.50;99.90
37938;DHT22;23763;48.130;11.602;2023-09-30T08:56:58;19.70;99.90
37938;DHT22;23763;48.130;11.602;2023-09-30T08:59:25;20.00;99.90
37938;DHT22;23763;48.130;11.602;2023-09-30T09:01:52;20.20;99.90
37938;DHT22;23763;48.130;11.602;2023-09-30T09:04:17;20.50;99.90
37938;DHT22;23763;48.130;11.602;2023-09-30T09:06:43;20.60;99.90
37938;DHT22;23763;48.130;11.602;2023-09-30T09:09:15;20.60;99.90
37938;DHT22;23763;48.130;11.602;2023-09-30T09:11:45;20.50;99.90
37938;DHT22;23763;48.130;11.602;2023-09-30T09:14:12;20.40;99.90
37938;DHT22;23763;48.130;11.602;2023-09-30T09:16:47;20.30;99.90
37938;DHT22;23763;48.130;11.602;2023-09-30T09:19:15;20.10;99.90
37938;DHT22;23763;48.130;11.602;2023-09-30T09:22:10;20.00;99.90
37938;DHT22;23763;48.130;11.602;2023-09-30T09:24:37;20.00;99.90
37938;DHT22;23763;48.130;11.602;2023-09-30T09:27:12;20.20;99.90
37938;DHT22;23763;48.130;11.602;2023-09-30T09:29:39;20.10;99.90
37938;DHT22;23763;48.130;11.602;2023-09-30T09:32:12;20.10;99.90
37938;DHT22;23763;48.130;11.602;2023-09-30T09:34:39;20.10;99.90
37938;DHT22;23763;48.130;11.602;2023-09-30T09:37:15;20.20;99.90
37938;DHT22;23763;48.130;11.602;2023-09-30T09:39:49;20.00;99.90
37938;DHT22;23763;48.130;11.602;2023-09-30T09:42:28;20.00;99.90
37938;DHT22;23763;48.130;11.602;2023-09-30T09:44:59;20.00;99.90
37938;DHT22;23763;48.130;11.602;2023-09-30T09:47:25;19.90;99.90
37938;DHT22;23763;48.130;11.602;2023-09-30T09:49:52;19.80;99.90
37938;DHT22;23763;48.130;11.602;2023-09-30T09:52:19;19.90;99.90
37938;DHT22;23763;48.130;11.602;2023-09-30T09:54:45;20.10;99.90
37938;DHT22;23763;48.130;11.602;2023-09-30T09:57:12;20.20;99.90
37938;DHT22;23763;48.130;11.602;2023-09-30T09:59:39;20.50;99.90
37938;DHT22;23763;48.130;11.602;2023-09-30T10:02:11;20.60;99.90
37938;DHT22;23763;48.130;11.602;2023-09-30T10:04:41;20.60;99.90
37938;DHT22;23763;48.130;11.602;2023-09-30T10:07:14;20.50;99.90
37938;DHT22;23763;48.130;11.602;2023-09-30T10:09:45;20.70;99.90
37938;DHT22;23763;48.130;11.602;2023-09-30T10:12:12;20.80;99.90
37938;DHT22;23763;48.130;11.602;2023-09-30T10:14:39;20.40;99.90
37938;DHT22;23763;48.130;11.602;2023-09-30T10:17:04;20.50;99.90
37938;DHT22;23763;48.130;11.602;2023-09-30T10:19:30;20.50;99.90
37938;DHT22;23763;48.130;11.602;2023-09-30T10:24:42;20.40;99.90
37938;DHT22;23763;48.130;11.602;2023-09-30T10:27:31;20.50;99.90
37938;DHT22;23763;48.130;11.602;2023-09-30T10:29:58;20.40;99.90
37938;DHT22;23763;48.130;11.602;2023-09-30T10:35:44;20.30;99.90
37938;DHT22;23763;48.130;11.602;2023-09-30T10:40:50;20.30;99.90
37938;DHT22;23763;48.130;11.602;2023-09-30T10:43:32;20.40;99.90
37938;DHT22;23763;48.130;11.602;2023-09-30T10:46:02;20.40;99.90
37938;DHT22;23763;48.130;11.602;2023-09-30T10:51:13;20.40;99.90
37938;DHT22;23763;48.130;11.602;2023-09-30T10:53:44;20.40;99.90
37938;DHT22;23763;48.130;11.602;2023-09-30T10:56:11;20.50;99.90
37938;DHT22;23763;48.130;11.602;2023-09-30T10:58:41;20.50;99.90
37938;DHT22;23763;48.130;11.602;2023-09-30T11:01:07;20.40;99.90
37938;DHT22;23763;48.130;11.602;2023-09-30T11:03:36;20.40;99.90
37938;DHT22;23763;48.130;11.602;2023-09-30T11:06:05;20.50;99.90
37938;DHT22;23763;48.130;11.602;2023-09-30T11:08:32;20.60;99.90
37938;DHT22;23763;48.130;11.602;2023-09-30T11:10:58;20.80;99.90
37938;DHT22;23763;48.130;11.602;2023-09-30T11:13:34;21.10;99.90
37938;DHT22;23763;48.130;11.602;2023-09-30T11:16:04;21.30;99.90
37938;DHT22;23763;48.130;11.602;2023-09-30T11:18:34;21.20;99.90
37938;DHT22;23763;48.130;11.602;2023-09-30T11:21:10;21.20;99.90
37938;DHT22;23763;48.130;11.602;2023-09-30T11:23:37;21.10;99.90
37938;DHT22;23763;48.130;11.602;2023-09-30T11:26:04;21.10;99.90
37938;DHT22;23763;48.130;11.602;2023-09-30T11:28:41;21.10;99.90
37938;DHT22;23763;48.130;11.602;2023-09-30T11:31:11;21.20;99.90
37938;DHT22;23763;48.130;11.602;2023-09-30T11:33:49;21.20;99.90
37938;DHT22;23763;48.130;11.602;2023-09-30T11:36:19;21.20;99.90
37938;DHT22;23763;48.130;11.602;2023-09-30T11:38:46;21.20;99.90
37938;DHT22;23763;48.130;11.602;2023-09-30T11:41:16;21.10;99.90
37938;DHT22;23763;48.130;11.602;2023-09-30T11:44:09;21.00;99.90
37938;DHT22;23763;48.130;11.602;2023-09-30T11:47:00;21.00;99.90
37938;DHT22;23763;48.130;11.602;2023-09-30T11:52:01;20.90;99.90
37938;DHT22;23763;48.130;11.602;2023-09-30T11:54:39;21.10;99.90
37938;DHT22;23763;48.130;11.602;2023-09-30T11:57:07;21.30;99.90
37938;DHT22;23763;48.130;11.602;2023-09-30T11:59:37;21.50;99.90
37938;DHT22;23763;48.130;11.602;2023-09-30T12:02:04;21.50;99.90
37938;DHT22;23763;48.130;11.602;2023-09-30T12:04:31;21.60;99.90
37938;DHT22;23763;48.130;11.602;2023-09-30T12:06:57;21.50;99.90
37938;DHT22;23763;48.130;11.602;2023-09-30T12:09:23;21.40;99.90
37938;DHT22;23763;48.130;11.602;2023-09-30T12:11:52;21.50;99.90
37938;DHT22;23763;48.130;11.602;2023-09-30T12:14:19;21.30;99.90
37938;DHT22;23763;48.130;11.602;2023-09-30T12:16:46;21.10;99.90
37938;DHT22;23763;48.130;11.602;2023-09-30T12:19:22;21.10;99.90
37938;DHT22;23763;48.130;11.602;2023-09-30T12:21:48;21.00;99.90
37938;DHT22;23763;48.130;11.602;2023-09-30T12:24:14;21.00;99.90
37938;DHT22;23763;48.130;11.602;2023-09-30T12:26:45;21.00;99.90
37938;DHT22;23763;48.130;11.602;2023-09-30T12:29:14;21.00;99.90
37938;DHT22;23763;48.130;11.602;2023-09-30T12:31:45;20.80;99.90
37938;DHT22;23763;48.130;11.602;2023-09-30T12:34:11;20.80;99.90
37938;DHT22;23763;48.130;11.602;2023-09-30T12:36:39;20.90;99.90
37938;DHT22;23763;48.130;11.602;2023-09-30T12:39:04;21.00;99.90
37938;DHT22;23763;48.130;11.602;2023-09-30T12:41:40;21.10;99.90
37938;DHT22;23763;48.130;11.602;2023-09-30T12:44:06;21.10;99.90
37938;DHT22;23763;48.130;11.602;2023-09-30T12:46:32;21.10;99.90
37938;DHT22;23763;48.130;11.602;2023-09-30T12:49:01;21.00;99.90
37938;DHT22;23763;48.130;11.602;2023-09-30T12:51:27;21.00;99.90
37938;DHT22;23763;48.130;11.602;2023-09-30T12:53:53;21.00;99.90
37938;DHT22;23763;48.130;11.602;2023-09-30T12:56:19;20.90;99.90
37938;DHT22;23763;48.130;11.602;2023-09-30T12:58:44;20.80;99.90
37938;DHT22;23763;48.130;11.602;2023-09-30T13:01:10;21.00;99.90
37938;DHT22;23763;48.130;11.602;2023-09-30T13:03:37;21.20;99.90
37938;DHT22;23763;48.130;11.602;2023-09-30T13:06:02;21.40;99.90
37938;DHT22;23763;48.130;11.602;2023-09-30T13:08:29;21.50;99.90
37938;DHT22;23763;48.130;11.602;2023-09-30T13:11:00;21.60;99.90
37938;DHT22;23763;48.130;11.602;2023-09-30T13:13:31;21.70;99.90
37938;DHT22;23763;48.130;11.602;2023-09-30T13:15:59;21.70;99.90
37938;DHT22;23763;48.130;11.602;2023-09-30T13:18:25;21.80;99.90
37938;DHT22;23763;48.130;11.602;2023-09-30T13:20:51;21.80;99.90
37938;DHT22;23763;48.130;11.602;2023-09-30T13:23:18;21.50;99.90
37938;DHT22;23763;48.130;11.602;2023-09-30T13:25:44;21.70;99.90
37938;DHT22;23763;48.130;11.602;2023-09-30T13:28:10;21.80;99.90
37938;DHT22;23763;48.130;11.602;2023-09-30T13:30:36;21.80;99.90
37938;DHT22;23763;48.130;11.602;2023-09-30T13:33:02;21.80;99.90
37938;DHT22;23763;48.130;11.602;2023-09-30T13:35:28;21.70;99.90
37938;DHT22;23763;48.130;11.602;2023-09-30T13:37:53;21.80;99.90
37938;DHT22;23763;48.130;11.602;2023-09-30T13:40:19;21.80;99.90
37938;DHT22;23763;48.130;11.602;2023-09-30T13:42:45;21.80;99.90
37938;DHT22;23763;48.130;11.602;2023-09-30T13:45:11;21.70;99.90
37938;DHT22;23763;48.130;11.602;2023-09-30T13:47:37;21.70;99.90
37938;DHT22;23763;48.130;11.602;2023-09-30T13:50:03;21.50;99.90
37938;DHT22;23763;48.130;11.602;2023-09-30T13:52:35;21.30;99.90
37938;DHT22;23763;48.130;11.602;2023-09-30T13:55:01;21.10;99.90
37938;DHT22;23763;48.130;11.602;2023-09-30T13:57:27;21.20;99.90
37938;DHT22;23763;48.130;11.602;2023-09-30T13:59:53;21.20;99.90
37938;DHT22;23763;48.130;11.602;2023-09-30T14:02:18;21.20;99.90
37938;DHT22;23763;48.130;11.602;2023-09-30T14:04:45;21.10;99.90
37938;DHT22;23763;48.130;11.602;2023-09-30T14:07:11;21.10;99.90
37938;DHT22;23763;48.130;11.602;2023-09-30T14:09:36;21.10;99.90
37938;DHT22;23763;48.130;11.602;2023-09-30T14:12:03;21.00;99.90
37938;DHT22;23763;48.130;11.602;2023-09-30T14:14:33;21.10;99.90
37938;DHT22;23763;48.130;11.602;2023-09-30T14:17:00;21.10;99.90
37938;DHT22;23763;48.130;11.602;2023-09-30T14:19:25;21.10;99.90
37938;DHT22;23763;48.130;11.602;2023-09-30T14:21:51;21.20;99.90
37938;DHT22;23763;48.130;11.602;2023-09-30T14:24:17;21.20;99.90
37938;DHT22;23763;48.130;11.602;2023-09-30T14:26:42;21.00;99.90
37938;DHT22;23763;48.130;11.602;2023-09-30T14:29:10;21.10;99.90
37938;DHT22;23763;48.130;11.602;2023-09-30T14:31:37;21.10;99.90
37938;DHT22;23763;48.130;11.602;2023-09-30T14:34:03;21.00;99.90
37938;DHT22;23763;48.130;11.602;2023-09-30T14:36:30;20.90;99.90
37938;DHT22;23763;48.130;11.602;2023-09-30T14:38:58;20.90;99.90
37938;DHT22;23763;48.130;11.602;2023-09-30T14:41:24;20.80;99.90
37938;DHT22;23763;48.130;11.602;2023-09-30T14:43:50;20.80;99.90
37938;DHT22;23763;48.130;11.602;2023-09-30T14:46:15;20.80;99.90
37938;DHT22;23763;48.130;11.602;2023-09-30T14:48:41;20.90;99.90
37938;DHT22;23763;48.130;11.602;2023-09-30T14:51:09;20.90;99.90
37938;DHT22;23763;48.130;11.602;2023-09-30T14:53:34;21.00;99.90
37938;DHT22;23763;48.130;11.602;2023-09-30T14:56:00;20.90;99.90
37938;DHT22;23763;48.130;11.602;2023-09-30T14:58:26;20.90;99.90
37938;DHT22;23763;48.130;11.602;2023-09-30T15:00:51;21.00;99.90
37938;DHT22;23763;48.130;11.602;2023-09-30T15:03:18;21.00;99.90
37938;DHT22;23763;48.130;11.602;2023-09-30T15:05:46;20.90;99.90
37938;DHT22;23763;48.130;11.602;2023-09-30T15:08:11;20.90;99.90
37938;DHT22;23763;48.130;11.602;2023-09-30T15:10:37;21.00;99.90
37938;DHT22;23763;48.130;11.602;2023-09-30T15:13:03;20.90;99.90
37938;DHT22;23763;48.130;11.602;2023-09-30T15:15:30;20.90;99.90
37938;DHT22;23763;48.130;11.602;2023-09-30T15:17:56;20.90;99.90
37938;DHT22;23763;48.130;11.602;2023-09-30T15:20:21;20.80;99.90
37938;DHT22;23763;48.130;11.602;2023-09-30T15:22:47;20.80;99.90
37938;DHT22;23763;48.130;11.602;2023-09-30T15:25:13;20.70;99.90
37938;DHT22;23763;48.130;11.602;2023-09-30T15:27:39;20.70;99.90
37938;DHT22;23763;48.130;11.602;2023-09-30T15:30:05;20.60;99.90
37938;DHT22;23763;48.130;11.602;2023-09-30T15:32:32;20.60;99.90